createdAt,value
2016-09-05T00:00:52.102Z,79.9
2016-09-05T00:01:52.039Z,79.33
2016-09-05T00:02:52.263Z,78.5
2016-09-05T00:03:52.742Z,78.69
2016-09-05T00:04:51.968Z,79.36
2016-09-05T00:05:51.936Z,79.36
2016-09-05T00:06:51.921Z,79.46
2016-09-05T00:07:51.898Z,80.04
2016-09-05T00:08:51.853Z,80.29
2016-09-05T00:09:51.833Z,80.1
2016-09-05T00:10:51.819Z,80.29
2016-09-05T00:11:51.814Z,80.19
2016-09-05T00:12:51.766Z,80.38
2016-09-05T00:13:51.744Z,80.29
2016-09-05T00:14:51.740Z,80.1
2016-09-05T00:15:51.763Z,80.1
2016-09-05T00:16:51.668Z,80.77
2016-09-05T00:17:52.394Z,80.29
2016-09-05T00:18:51.619Z,79.52
2016-09-05T00:19:52.013Z,80.29
2016-09-05T00:20:51.560Z,80.29
2016-09-05T00:21:51.527Z,81.16
2016-09-05T00:23:06.283Z,80.87
2016-09-05T00:23:51.711Z,80.73
2016-09-05T00:25:06.178Z,81.45
2016-09-05T00:25:51.428Z,80.77
2016-09-05T00:26:51.405Z,80.92
2016-09-05T00:27:51.599Z,80.29
2016-09-05T00:28:51.358Z,80.68
2016-09-05T00:29:51.333Z,80.87
2016-09-05T00:30:51.304Z,80.48
2016-09-05T00:31:51.275Z,79.71
2016-09-05T00:32:51.241Z,80.48
2016-09-05T00:33:52.000Z,80.19
2016-09-05T00:34:51.190Z,80.29
2016-09-05T00:35:52.342Z,81.02
2016-09-05T00:36:51.945Z,80.92
2016-09-05T00:38:05.843Z,80.25
2016-09-05T00:38:51.087Z,80.38
2016-09-05T00:39:51.825Z,80.73
2016-09-05T00:40:51.063Z,80.68
2016-09-05T00:41:51.205Z,80.19
2016-09-05T00:42:50.987Z,79.81
2016-09-05T00:43:50.984Z,79.61
2016-09-05T00:44:51.716Z,80.73
2016-09-05T00:45:51.078Z,80.54
2016-09-05T00:46:50.912Z,80.29
2016-09-05T00:47:51.631Z,79.81
2016-09-05T00:48:51.857Z,80.29
2016-09-05T00:49:50.808Z,81.02
2016-09-05T00:51:50.771Z,80.83
2016-09-05T00:52:50.759Z,81.02
2016-09-05T00:53:50.717Z,80.54
2016-09-05T00:54:50.682Z,80.44
2016-09-05T00:55:50.651Z,80.35
2016-09-05T00:56:50.632Z,80.54
2016-09-05T00:57:51.003Z,80.06
2016-09-05T00:58:50.608Z,80.35
2016-09-05T01:00:05.280Z,80.92
2016-09-05T01:00:50.523Z,81.21
2016-09-05T01:01:50.543Z,81.02
2016-09-05T01:02:50.478Z,81.12
2016-09-05T01:03:51.207Z,81.27
2016-09-05T01:04:50.419Z,81.17
2016-09-05T01:05:50.398Z,80.79
2016-09-05T01:06:50.386Z,80.79
2016-09-05T01:07:50.390Z,80.73
2016-09-05T01:08:50.327Z,80.11
2016-09-05T01:09:50.283Z,80.06
2016-09-05T01:10:50.319Z,80.44
2016-09-05T01:11:50.245Z,80.73
2016-09-05T01:13:04.932Z,80.25
2016-09-05T01:13:50.261Z,80.06
2016-09-05T01:14:50.212Z,80.25
2016-09-05T01:15:50.138Z,80.83
2016-09-05T01:16:50.129Z,80.44
2016-09-05T01:17:50.086Z,80.15
2016-09-05T01:18:50.823Z,79.81
2016-09-05T01:19:50.056Z,79.48
2016-09-05T01:20:50.053Z,79.33
2016-09-05T01:21:50.005Z,79.48
2016-09-05T01:22:49.974Z,79.86
2016-09-05T01:23:49.928Z,79.67
2016-09-05T01:24:49.912Z,79.28
2016-09-05T01:25:50.007Z,79.43
2016-09-05T01:26:49.855Z,79.23
2016-09-05T01:27:49.847Z,79.38
2016-09-05T01:28:49.807Z,79.58
2016-09-05T01:29:49.904Z,79.48
2016-09-05T01:30:49.753Z,80.25
2016-09-05T01:31:49.722Z,80.44
2016-09-05T01:32:49.703Z,79.67
2016-09-05T01:33:49.676Z,80.15
2016-09-05T01:34:50.415Z,80.25
2016-09-05T01:35:50.373Z,80.63
2016-09-05T01:36:49.726Z,79.48
2016-09-05T01:37:49.583Z,79.67
2016-09-05T01:38:49.552Z,79.38
2016-09-05T01:39:49.533Z,79.1
2016-09-05T01:40:49.513Z,78.9
2016-09-05T01:41:49.477Z,79
2016-09-05T01:42:49.444Z,78.9
2016-09-05T01:43:49.414Z,78.9
2016-09-05T01:44:49.401Z,79.1
2016-09-05T01:45:49.365Z,78.81
2016-09-05T01:46:49.359Z,79
2016-09-05T01:47:49.316Z,79.28
2016-09-05T01:48:49.308Z,79.28
2016-09-05T01:49:49.273Z,79.13
2016-09-05T01:50:49.355Z,79.1
2016-09-05T01:51:55.565Z,78.65
2016-09-05T01:52:49.193Z,78.9
2016-09-05T01:53:49.168Z,78.71
2016-09-05T01:54:49.152Z,78.85
2016-09-05T01:55:49.112Z,78.46
2016-09-05T01:56:49.084Z,78.85
2016-09-05T01:57:49.073Z,78.46
2016-09-05T01:58:49.045Z,77.88
2016-09-05T01:59:49.020Z,78.08
2016-09-05T02:00:48.980Z,78.56
2016-09-05T02:01:49.010Z,77.31
2016-09-05T02:03:03.945Z,78.27
2016-09-05T02:03:48.917Z,77.98
2016-09-05T02:04:48.888Z,78.27
2016-09-05T02:05:48.872Z,78.56
2016-09-05T02:06:48.830Z,78.71
2016-09-05T02:07:48.816Z,78.61
2016-09-05T02:08:48.780Z,79
2016-09-05T02:09:48.797Z,79
2016-09-05T02:10:48.733Z,79
2016-09-05T02:11:48.697Z,79
2016-09-05T02:12:48.717Z,78.81
2016-09-05T02:13:48.703Z,79.19
2016-09-05T02:14:48.645Z,78.61
2016-09-05T02:15:48.637Z,78.52
2016-09-05T02:16:48.577Z,79.38
2016-09-05T02:17:48.546Z,79.48
2016-09-05T02:18:48.540Z,79.19
2016-09-05T02:19:48.514Z,78.9
2016-09-05T02:20:48.472Z,79.28
2016-09-05T02:21:48.683Z,79.19
2016-09-05T02:23:03.130Z,79.58
2016-09-05T02:23:48.395Z,80.11
2016-09-05T02:24:48.452Z,79.38
2016-09-05T02:25:48.365Z,79.38
2016-09-05T02:26:48.311Z,79.38
2016-09-05T02:27:48.661Z,79.96
2016-09-05T02:28:48.268Z,79.86
2016-09-05T02:29:48.265Z,79.48
2016-09-05T02:30:48.979Z,78.9
2016-09-05T02:31:48.178Z,78.61
2016-09-05T02:32:48.162Z,78.9
2016-09-05T02:33:48.252Z,79
2016-09-05T02:34:48.136Z,78.52
2016-09-05T02:35:48.126Z,79.38
2016-09-05T02:37:02.769Z,79.38
2016-09-05T02:37:48.036Z,79.28
2016-09-05T02:38:48.104Z,79.1
2016-09-05T02:39:47.968Z,78.52
2016-09-05T02:40:48.695Z,79.58
2016-09-05T02:41:48.179Z,79.48
2016-09-05T02:42:47.903Z,79.28
2016-09-05T02:43:47.989Z,79.48
2016-09-05T02:44:47.868Z,79.19
2016-09-05T02:46:02.551Z,79.1
2016-09-05T02:46:47.823Z,79
2016-09-05T02:47:47.844Z,79.28
2016-09-05T02:48:47.754Z,79
2016-09-05T02:49:47.718Z,78.81
2016-09-05T02:50:48.760Z,79.1
2016-09-05T02:51:47.718Z,79.19
2016-09-05T02:52:47.651Z,79
2016-09-05T02:53:47.797Z,79.1
2016-09-05T02:54:47.588Z,79.1
2016-09-05T02:55:47.551Z,78.42
2016-09-05T02:56:47.544Z,79
2016-09-05T02:57:47.499Z,78.52
2016-09-05T02:58:47.727Z,79.28
2016-09-05T02:59:48.204Z,79.1
2016-09-05T03:00:47.907Z,79.19
2016-09-05T03:01:48.294Z,79.38
2016-09-05T03:02:47.403Z,79.1
2016-09-05T03:03:47.341Z,78.9
2016-09-05T03:04:47.429Z,79
2016-09-05T03:05:47.297Z,79.1
2016-09-05T03:06:47.278Z,79.38
2016-09-05T03:07:48.023Z,79
2016-09-05T03:08:47.275Z,79.1
2016-09-05T03:09:47.426Z,78.42
2016-09-05T03:10:47.173Z,79
2016-09-05T03:12:47.112Z,79.53
2016-09-05T03:13:47.097Z,80.06
2016-09-05T03:14:47.093Z,79.38
2016-09-05T03:15:47.036Z,78.33
2016-09-05T03:16:47.806Z,78.61
2016-09-05T03:17:47.073Z,78.33
2016-09-05T03:18:46.967Z,78.81
2016-09-05T03:19:47.049Z,78.9
2016-09-05T03:21:46.886Z,78.9
2016-09-05T03:22:46.861Z,79.05
2016-09-05T03:23:46.827Z,79.48
2016-09-05T03:24:47.112Z,79.48
2016-09-05T03:25:46.816Z,78.86
2016-09-05T03:26:46.829Z,79.19
2016-09-05T03:27:46.916Z,79.28
2016-09-05T03:28:46.699Z,79.58
2016-09-05T03:29:46.695Z,78.67
2016-09-05T03:30:47.468Z,79
2016-09-05T03:31:47.473Z,79.28
2016-09-05T03:32:46.857Z,79.1
2016-09-05T03:33:46.588Z,79.28
2016-09-05T03:34:47.304Z,79
2016-09-05T03:35:46.508Z,79.28
2016-09-05T03:36:46.514Z,79.48
2016-09-05T03:37:47.244Z,79
2016-09-05T03:38:46.433Z,79.19
2016-09-05T03:39:46.434Z,79
2016-09-05T03:40:46.388Z,79.58
2016-09-05T03:41:46.508Z,79.44
2016-09-05T03:42:46.386Z,79.35
2016-09-05T03:43:46.317Z,79.35
2016-09-05T03:44:46.386Z,79
2016-09-05T03:45:46.266Z,78.9
2016-09-05T03:46:46.250Z,78.9
2016-09-05T03:47:46.202Z,79.58
2016-09-05T03:48:46.187Z,78.96
2016-09-05T03:49:46.938Z,78.86
2016-09-05T03:50:46.131Z,79
2016-09-05T03:51:46.866Z,78.9
2016-09-05T03:52:46.115Z,79
2016-09-05T03:53:46.086Z,78.23
2016-09-05T03:54:46.042Z,79.1
2016-09-05T03:55:46.069Z,78.96
2016-09-05T03:56:45.988Z,79.28
2016-09-05T03:58:00.677Z,78.9
2016-09-05T03:58:45.928Z,79.96
2016-09-05T03:59:45.900Z,79.1
2016-09-05T04:00:45.883Z,79
2016-09-05T04:01:45.868Z,79.1
2016-09-05T04:02:46.675Z,79
2016-09-05T04:03:45.783Z,79
2016-09-05T04:05:00.558Z,79.19
2016-09-05T04:05:45.734Z,79
2016-09-05T04:07:00.443Z,79.19
2016-09-05T04:07:45.700Z,79.05
2016-09-05T04:09:46.785Z,78.23
2016-09-05T04:10:45.614Z,78.81
2016-09-05T04:11:46.482Z,78.42
2016-09-05T04:12:45.547Z,78.81
2016-09-05T04:13:46.042Z,78.42
2016-09-05T04:14:45.513Z,79.1
2016-09-05T04:15:45.505Z,79.48
2016-09-05T04:16:46.505Z,78.9
2016-09-05T04:17:46.465Z,78.71
2016-09-05T04:18:45.451Z,78.23
2016-09-05T04:19:46.686Z,78.52
2016-09-05T04:20:45.358Z,78.42
2016-09-05T04:21:45.395Z,78.42
2016-09-05T04:22:45.307Z,78.61
2016-09-05T04:23:46.057Z,78.61
2016-09-05T04:24:46.055Z,79.1
2016-09-05T04:25:45.990Z,78.9
2016-09-05T04:26:45.204Z,79.19
2016-09-05T04:27:45.173Z,79.19
2016-09-05T04:28:45.161Z,78.52
2016-09-05T04:29:45.224Z,78.61
2016-09-05T04:30:45.094Z,78.33
2016-09-05T04:31:45.077Z,78.52
2016-09-05T04:32:45.137Z,78.61
2016-09-05T04:33:45.767Z,78.52
2016-09-05T04:35:44.989Z,79.1
2016-09-05T04:36:44.944Z,79.15
2016-09-05T04:37:45.305Z,78.9
2016-09-05T04:38:44.880Z,78.9
2016-09-05T04:39:45.109Z,79.05
2016-09-05T04:40:44.867Z,79.28
2016-09-05T04:41:44.821Z,79
2016-09-05T04:42:44.798Z,79.19
2016-09-05T04:43:44.755Z,78.81
2016-09-05T04:44:44.758Z,79.1
2016-09-05T04:46:44.692Z,78.61
2016-09-05T04:47:44.681Z,78.81
2016-09-05T04:48:44.853Z,78.03
2016-09-05T04:49:46.337Z,78.52
2016-09-05T04:50:44.873Z,78.23
2016-09-05T04:52:44.516Z,76.73
2016-09-05T04:53:44.498Z,77.59
2016-09-05T04:54:44.537Z,77.59
2016-09-05T04:55:44.446Z,77.5
2016-09-05T04:56:44.408Z,77.11
2016-09-05T04:57:44.410Z,77.21
2016-09-05T04:58:44.431Z,77.59
2016-09-05T04:59:44.364Z,78.42
2016-09-05T05:00:44.306Z,77.46
2016-09-05T05:01:44.314Z,77.94
2016-09-05T05:02:45.035Z,77.94
2016-09-05T05:03:44.241Z,78.13
2016-09-05T05:04:44.380Z,78.23
2016-09-05T05:05:44.196Z,78.71
2016-09-05T05:06:44.907Z,78.61
2016-09-05T05:07:44.168Z,79.1
2016-09-05T05:08:44.095Z,79.38
2016-09-05T05:10:44.125Z,79.96
2016-09-05T05:11:44.029Z,79.86
2016-09-05T05:12:44.000Z,79.96
2016-09-05T05:13:43.998Z,80.06
2016-09-05T05:14:45.468Z,79.38
2016-09-05T05:15:43.920Z,80.06
2016-09-05T05:16:43.938Z,79.38
2016-09-05T05:17:44.633Z,79.19
2016-09-05T05:18:43.843Z,79.28
2016-09-05T05:19:44.601Z,79.38
2016-09-05T05:20:43.824Z,80.25
2016-09-05T05:21:43.778Z,79.67
2016-09-05T05:22:43.790Z,79.58
2016-09-05T05:23:43.737Z,79.86
2016-09-05T05:24:43.688Z,80.06
2016-09-05T05:25:43.666Z,80.35
2016-09-05T05:26:43.653Z,80.92
2016-09-05T05:27:43.608Z,80.83
2016-09-05T05:28:43.601Z,80.83
2016-09-05T05:29:44.676Z,80.54
2016-09-05T05:30:43.532Z,80.83
2016-09-05T05:31:43.516Z,80.92
2016-09-05T05:32:43.486Z,81.21
2016-09-05T05:33:44.208Z,80.63
2016-09-05T05:35:43.396Z,81.84
2016-09-05T05:36:44.150Z,82.14
2016-09-05T05:38:43.346Z,81.65
2016-09-05T05:39:43.285Z,82.04
2016-09-05T05:40:43.274Z,82.04
2016-09-05T05:41:43.249Z,82.04
2016-09-05T05:42:43.239Z,82.23
2016-09-05T05:43:43.202Z,82.32
2016-09-05T05:44:57.958Z,82.61
2016-09-05T05:45:43.159Z,82.71
2016-09-05T05:46:43.139Z,82.71
2016-09-05T05:47:43.195Z,82.23
2016-09-05T05:48:43.063Z,82.52
2016-09-05T05:49:43.073Z,82.42
2016-09-05T05:50:43.054Z,82.9
2016-09-05T05:51:42.988Z,82.52
2016-09-05T05:52:43.758Z,82.71
2016-09-05T05:53:42.947Z,81.7
2016-09-05T05:54:43.171Z,80.83
2016-09-05T05:55:42.891Z,80.83
2016-09-05T05:56:43.649Z,80.83
2016-09-05T05:57:43.143Z,80.83
2016-09-05T05:58:42.819Z,81.7
2016-09-05T05:59:43.722Z,82.17
2016-09-05T06:00:42.802Z,81.5
2016-09-05T06:01:42.729Z,81.7
2016-09-05T06:02:57.417Z,81.6
2016-09-05T06:03:42.680Z,81.79
2016-09-05T06:04:42.659Z,81.79
2016-09-05T06:05:42.628Z,82.17
2016-09-05T06:06:42.601Z,82.27
2016-09-05T06:07:42.588Z,82.08
2016-09-05T06:08:42.542Z,82.27
2016-09-05T06:09:42.534Z,81.88
2016-09-05T06:10:42.494Z,82.27
2016-09-05T06:11:42.465Z,82.17
2016-09-05T06:12:42.440Z,82.17
2016-09-05T06:13:42.425Z,82.17
2016-09-05T06:14:42.384Z,82.37
2016-09-05T06:15:57.380Z,82.56
2016-09-05T06:16:42.384Z,81.98
2016-09-05T06:17:43.159Z,81.94
2016-09-05T06:18:42.305Z,82.56
2016-09-05T06:19:42.260Z,82.9
2016-09-05T06:20:42.244Z,82.94
2016-09-05T06:21:42.997Z,82.81
2016-09-05T06:22:42.174Z,82.94
2016-09-05T06:23:42.151Z,82.75
2016-09-05T06:25:42.420Z,81.5
2016-09-05T06:26:42.079Z,82.27
2016-09-05T06:27:42.070Z,82.27
2016-09-05T06:28:42.034Z,81.6
2016-09-05T06:29:42.014Z,82.27
2016-09-05T06:30:41.981Z,82.08
2016-09-05T06:31:41.965Z,81.7
2016-09-05T06:32:41.934Z,82.27
2016-09-05T06:33:41.925Z,81.79
2016-09-05T06:34:41.876Z,82.17
2016-09-05T06:35:41.838Z,81.4
2016-09-05T06:36:41.824Z,82.08
2016-09-05T06:37:41.796Z,81.6
2016-09-05T06:38:41.773Z,81.98
2016-09-05T06:39:41.758Z,82.27
2016-09-05T06:40:41.870Z,82.17
2016-09-05T06:41:41.692Z,81.5
2016-09-05T06:42:42.431Z,81.7
2016-09-05T06:43:41.650Z,82.37
2016-09-05T06:44:41.665Z,82.17
2016-09-05T06:45:41.597Z,82.17
2016-09-05T06:46:42.320Z,82.27
2016-09-05T06:47:41.552Z,81.7
2016-09-05T06:48:42.281Z,81.79
2016-09-05T06:49:41.470Z,81.7
2016-09-05T06:50:42.403Z,81.7
2016-09-05T06:51:41.458Z,81.63
2016-09-05T06:52:41.392Z,80.73
2016-09-05T06:53:41.384Z,80.73
2016-09-05T06:54:41.351Z,81.06
2016-09-05T06:55:41.630Z,81.3
2016-09-05T06:56:41.315Z,81.79
2016-09-05T06:57:41.277Z,81.5
2016-09-05T06:58:41.245Z,82.17
2016-09-05T06:59:41.232Z,81.5
2016-09-05T07:00:41.192Z,81.5
2016-09-05T07:01:41.210Z,81.79
2016-09-05T07:02:41.147Z,80.83
2016-09-05T07:04:41.946Z,81.6
2016-09-05T07:05:41.085Z,81.88
2016-09-05T07:06:41.180Z,81.7
2016-09-05T07:07:56.026Z,81.21
2016-09-05T07:08:41.793Z,81.16
2016-09-05T07:09:40.982Z,81.7
2016-09-05T07:10:40.946Z,81.35
2016-09-05T07:11:40.920Z,81.35
2016-09-05T07:12:40.883Z,81.16
2016-09-05T07:13:40.847Z,81.25
2016-09-05T07:14:40.855Z,81.35
2016-09-05T07:15:41.590Z,81.83
2016-09-05T07:16:41.005Z,80.96
2016-09-05T07:17:40.760Z,80.77
2016-09-05T07:18:40.785Z,81.54
2016-09-05T07:19:40.712Z,81.12
2016-09-05T07:20:40.682Z,80.96
2016-09-05T07:21:40.650Z,80.77
2016-09-05T07:22:40.644Z,80.77
2016-09-05T07:23:40.598Z,80.96
2016-09-05T07:24:40.576Z,80.48
2016-09-05T07:25:40.561Z,80.58
2016-09-05T07:26:40.530Z,80.58
2016-09-05T07:27:40.507Z,80.33
2016-09-05T07:28:55.190Z,79.85
2016-09-05T07:29:40.460Z,79.46
2016-09-05T07:30:40.432Z,79.36
2016-09-05T07:31:40.498Z,79.08
2016-09-05T07:32:40.381Z,79.66
2016-09-05T07:33:41.113Z,78.5
2016-09-05T07:34:40.338Z,78.59
2016-09-05T07:35:40.286Z,79.17
2016-09-05T07:36:40.290Z,79.17
2016-09-05T07:37:40.311Z,79.08
2016-09-05T07:38:40.213Z,79.08
2016-09-05T07:39:40.213Z,78.4
2016-09-05T07:40:41.011Z,78.06
2016-09-05T07:41:40.176Z,77
2016-09-05T07:42:40.142Z,77.58
2016-09-05T07:43:40.099Z,77.19
2016-09-05T07:44:40.062Z,77.67
2016-09-05T07:45:40.042Z,77.58
2016-09-05T07:46:40.021Z,77.58
2016-09-05T07:47:39.979Z,77.38
2016-09-05T07:48:39.959Z,77.96
2016-09-05T07:49:40.766Z,78.25
2016-09-05T07:50:39.924Z,78.21
2016-09-05T07:52:39.874Z,78.06
2016-09-05T07:53:39.844Z,77.96
2016-09-05T07:54:39.812Z,77.58
2016-09-05T07:55:39.805Z,77.63
2016-09-05T07:56:39.757Z,77.76
2016-09-05T07:57:40.602Z,77.58
2016-09-05T07:58:39.730Z,77.58
2016-09-05T07:59:39.678Z,77.48
2016-09-05T08:01:39.633Z,77.09
2016-09-05T08:02:39.667Z,78.15
2016-09-05T08:03:39.585Z,77
2016-09-05T08:04:39.565Z,77
2016-09-05T08:05:39.540Z,77.28
2016-09-05T08:06:39.508Z,78.44
2016-09-05T08:07:54.501Z,77.58
2016-09-05T08:08:39.537Z,77.48
2016-09-05T08:09:54.141Z,77.76
2016-09-05T08:10:39.448Z,77.67
2016-09-05T08:11:39.427Z,77.76
2016-09-05T08:12:40.135Z,77.76
2016-09-05T08:13:39.346Z,77.96
2016-09-05T08:14:39.324Z,77.38
2016-09-05T08:15:39.330Z,77.76
2016-09-05T08:16:39.320Z,77.48
2016-09-05T08:17:39.291Z,77.67
2016-09-05T08:18:39.223Z,77.76
2016-09-05T08:19:39.180Z,77.48
2016-09-05T08:20:39.247Z,77.67
2016-09-05T08:21:39.160Z,77.09
2016-09-05T08:22:53.818Z,77.13
2016-09-05T08:23:39.112Z,76.84
2016-09-05T08:24:39.068Z,77.23
2016-09-05T08:25:39.782Z,77.42
2016-09-05T08:26:39.114Z,77.23
2016-09-05T08:27:38.981Z,77.33
2016-09-05T08:28:38.959Z,77.51
2016-09-05T08:29:39.664Z,77.38
2016-09-05T08:30:38.887Z,76.93
2016-09-05T08:31:38.968Z,77.03
2016-09-05T08:32:38.874Z,77.33
2016-09-05T08:33:53.547Z,77.13
2016-09-05T08:34:39.589Z,77.19
2016-09-05T08:35:39.641Z,76.93
2016-09-05T08:36:39.513Z,77.03
2016-09-05T08:37:38.716Z,77.28
2016-09-05T08:38:38.697Z,76.93
2016-09-05T08:39:38.677Z,77.23
2016-09-05T08:40:38.652Z,77.28
2016-09-05T08:41:38.620Z,77
2016-09-05T08:42:38.628Z,77.48
2016-09-05T08:43:39.334Z,77.19
2016-09-05T08:44:38.678Z,77.19
2016-09-05T08:45:38.563Z,77.38
2016-09-05T08:46:53.204Z,77
2016-09-05T08:47:38.475Z,76.93
2016-09-05T08:48:39.229Z,77.42
2016-09-05T08:49:38.431Z,77.33
2016-09-05T08:50:38.443Z,77.03
2016-09-05T08:51:38.363Z,76.93
2016-09-05T08:52:38.339Z,77.33
2016-09-05T08:53:38.510Z,76.93
2016-09-05T08:54:38.331Z,77.13
2016-09-05T08:55:38.507Z,77.23
2016-09-05T08:56:38.236Z,76.84
2016-09-05T08:57:52.923Z,77.23
2016-09-05T08:58:38.241Z,77.23
2016-09-05T08:59:38.155Z,77.23
2016-09-05T09:00:38.147Z,77.03
2016-09-05T09:01:38.196Z,76.84
2016-09-05T09:02:38.399Z,77.17
2016-09-05T09:03:38.060Z,77.33
2016-09-05T09:04:38.075Z,76.65
2016-09-05T09:05:38.015Z,75.72
2016-09-05T09:06:38.043Z,75.53
2016-09-05T09:07:38.227Z,76.1
2016-09-05T09:08:37.935Z,75.53
2016-09-05T09:09:37.939Z,76.1
2016-09-05T09:10:52.607Z,75.92
2016-09-05T09:11:37.871Z,75.05
2016-09-05T09:12:38.584Z,75.53
2016-09-05T09:13:37.867Z,76.2
2016-09-05T09:14:37.795Z,76.01
2016-09-05T09:15:37.758Z,75.72
2016-09-05T09:16:37.770Z,76.1
2016-09-05T09:17:37.717Z,75.62
2016-09-05T09:18:38.449Z,75.72
2016-09-05T09:19:37.832Z,75.72
2016-09-05T09:20:37.664Z,75.05
2016-09-05T09:21:37.638Z,74.95
2016-09-05T09:22:37.610Z,74.66
2016-09-05T09:23:37.556Z,74.66
2016-09-05T09:24:37.528Z,74.12
2016-09-05T09:25:37.565Z,74.69
2016-09-05T09:26:37.611Z,75.18
2016-09-05T09:27:38.243Z,74.51
2016-09-05T09:28:37.447Z,73.93
2016-09-05T09:29:37.414Z,73.73
2016-09-05T09:30:37.394Z,73.93
2016-09-05T09:31:37.585Z,73.83
2016-09-05T09:32:37.348Z,73.73
2016-09-05T09:33:37.317Z,73.73
2016-09-05T09:34:37.295Z,72.86
2016-09-05T09:35:37.320Z,72.52
2016-09-05T09:36:38.057Z,72.42
2016-09-05T09:37:37.203Z,72.42
2016-09-05T09:38:37.200Z,72.61
2016-09-05T09:39:37.215Z,72.61
2016-09-05T09:41:37.141Z,71.64
2016-09-05T09:42:37.104Z,71.64
2016-09-05T09:43:37.072Z,71.74
2016-09-05T09:45:37.078Z,72.03
2016-09-05T09:46:43.233Z,71.55
2016-09-05T09:47:37.943Z,71.64
2016-09-05T09:48:36.951Z,72.13
2016-09-05T09:49:36.954Z,72.52
2016-09-05T09:50:36.912Z,71.36
2016-09-05T09:51:36.973Z,70.87
2016-09-05T09:52:36.859Z,71.06
2016-09-05T09:53:36.838Z,71.06
2016-09-05T09:54:37.558Z,71.84
2016-09-05T09:55:36.765Z,71.26
2016-09-05T09:56:37.585Z,70.87
2016-09-05T09:57:36.753Z,70.78
2016-09-05T09:58:36.739Z,70.23
2016-09-05T09:59:36.773Z,70.32
2016-09-05T10:00:36.649Z,70.32
2016-09-05T10:01:37.395Z,70.81
2016-09-05T10:02:36.598Z,70.62
2016-09-05T10:03:36.572Z,70.81
2016-09-05T10:04:36.559Z,70.81
2016-09-05T10:05:37.285Z,70.62
2016-09-05T10:06:36.494Z,71.2
2016-09-05T10:07:36.477Z,70.32
2016-09-05T10:08:36.482Z,71.16
2016-09-05T10:09:36.418Z,70.72
2016-09-05T10:10:36.424Z,70.78
2016-09-05T10:12:36.353Z,70
2016-09-05T10:14:36.301Z,70.78
2016-09-05T10:15:36.276Z,70.48
2016-09-05T10:16:37.386Z,70.68
2016-09-05T10:17:36.269Z,71.45
2016-09-05T10:18:36.218Z,70.68
2016-09-05T10:19:36.171Z,70.97
2016-09-05T10:20:36.214Z,71.74
2016-09-05T10:21:36.165Z,71.16
2016-09-05T10:22:36.457Z,70.87
2016-09-05T10:23:36.154Z,70.68
2016-09-05T10:24:36.246Z,70.14
2016-09-05T10:25:36.354Z,70.42
2016-09-05T10:26:36.048Z,70.81
2016-09-05T10:27:35.989Z,70.78
2016-09-05T10:28:35.963Z,70.87
2016-09-05T10:29:35.941Z,70.72
2016-09-05T10:30:35.940Z,71.68
2016-09-05T10:31:36.652Z,71.2
2016-09-05T10:32:35.875Z,71.68
2016-09-05T10:33:35.889Z,70.81
2016-09-05T10:34:35.802Z,69.56
2016-09-05T10:35:35.825Z,69.88
2016-09-05T10:36:35.784Z,69.3
2016-09-05T10:37:35.776Z,69.01
2016-09-05T10:38:35.731Z,68.43
2016-09-05T10:39:35.689Z,68.52
2016-09-05T10:40:35.658Z,68.82
2016-09-05T10:41:35.668Z,69.26
2016-09-05T10:42:35.611Z,69.56
2016-09-05T10:43:36.351Z,69.74
2016-09-05T10:44:35.566Z,69.2
2016-09-05T10:45:35.713Z,69.01
2016-09-05T10:46:35.843Z,68.68
2016-09-05T10:47:35.481Z,68.88
2016-09-05T10:48:35.519Z,69.1
2016-09-05T10:49:35.485Z,68.68
2016-09-05T10:50:50.150Z,68.62
2016-09-05T10:51:35.405Z,68.43
2016-09-05T10:52:35.377Z,68.52
2016-09-05T10:53:35.357Z,68.91
2016-09-05T10:54:35.323Z,69.1
2016-09-05T10:55:35.302Z,68.88
2016-09-05T10:56:35.258Z,69.01
2016-09-05T10:57:35.260Z,69.2
2016-09-05T10:58:35.212Z,67.85
2016-09-05T10:59:36.001Z,67.79
2016-09-05T11:00:35.245Z,67.98
2016-09-05T11:02:35.164Z,67.98
2016-09-05T11:03:50.261Z,68.85
2016-09-05T11:04:35.071Z,68.46
2016-09-05T11:05:35.042Z,67.79
2016-09-05T11:06:35.027Z,67.98
2016-09-05T11:07:35.112Z,68.85
2016-09-05T11:08:34.993Z,68.66
2016-09-05T11:09:35.064Z,67.88
2016-09-05T11:10:34.928Z,67.82
2016-09-05T11:11:35.384Z,67.82
2016-09-05T11:12:34.894Z,66.66
2016-09-05T11:13:34.882Z,67.43
2016-09-05T11:14:49.568Z,66.75
2016-09-05T11:16:34.900Z,66.72
2016-09-05T11:17:35.257Z,66.82
2016-09-05T11:18:35.077Z,66.91
2016-09-05T11:19:35.913Z,65.75
2016-09-05T11:21:36.777Z,67.21
2016-09-05T11:22:49.427Z,66.53
2016-09-05T11:23:49.583Z,67.24
2016-09-05T11:24:34.694Z,67.49
2016-09-05T11:25:34.622Z,67.59
2016-09-05T11:26:34.643Z,67.01
2016-09-05T11:27:34.518Z,67.59
2016-09-05T11:28:34.480Z,67.4
2016-09-05T11:29:35.249Z,67.21
2016-09-05T11:31:36.112Z,65.3
2016-09-05T11:32:49.109Z,65.4
2016-09-05T11:33:34.366Z,64.95
2016-09-05T11:34:35.113Z,66.08
2016-09-05T11:35:34.325Z,65.3
2016-09-05T11:36:34.309Z,65.3
2016-09-05T11:37:35.037Z,64.56
2016-09-05T11:38:34.245Z,64.66
2016-09-05T11:39:35.015Z,64.56
2016-09-05T11:40:34.290Z,64.47
2016-09-05T11:41:34.977Z,66.11
2016-09-05T11:42:34.180Z,65.5
2016-09-05T11:43:34.181Z,64.92
2016-09-05T11:44:34.114Z,65.63
2016-09-05T11:45:34.164Z,65.88
2016-09-05T11:46:34.860Z,66.56
2016-09-05T11:47:34.028Z,65.79
2016-09-05T11:49:44.782Z,64.24
2016-09-05T11:50:58.670Z,63.59
2016-09-05T11:52:16.873Z,64.07
2016-09-05T11:53:46.266Z,63.34
2016-09-05T11:54:44.512Z,65.08
2016-09-05T11:55:45.382Z,63.72
2016-09-05T11:56:44.164Z,63.72
2016-09-05T11:57:44.191Z,63.53
2016-09-05T11:58:47.068Z,63.72
2016-09-05T12:00:45.191Z,64.47
2016-09-05T12:01:44.041Z,64.56
2016-09-05T12:46:43.791Z,64.92
2016-09-05T12:47:43.772Z,65.59
2016-09-05T12:48:44.155Z,65.5
2016-09-05T12:49:58.454Z,65.98
2016-09-05T12:50:43.719Z,65.79
2016-09-05T12:51:58.689Z,66.75
2016-09-05T12:52:43.687Z,65.82
2016-09-05T12:53:43.627Z,66.11
2016-09-05T12:54:43.595Z,64.85
2016-09-05T12:55:43.627Z,65.05
2016-09-05T12:56:43.598Z,65.53
2016-09-05T12:57:43.535Z,65.63
2016-09-05T12:58:43.519Z,64.85
2016-09-05T12:59:43.513Z,64.11
2016-09-05T13:00:43.460Z,63.53
2016-09-05T13:01:43.442Z,63.53
2016-09-05T13:02:43.433Z,63.34
2016-09-05T13:03:43.414Z,63.04
2016-09-05T13:04:43.716Z,63.43
2016-09-05T13:05:43.392Z,63.4
2016-09-05T13:06:43.312Z,62.95
2016-09-05T13:07:43.658Z,63.34
2016-09-05T13:08:43.284Z,63.04
2016-09-05T13:09:43.263Z,62.17
2016-09-05T13:10:43.223Z,62.3
2016-09-05T13:11:43.201Z,62.2
2016-09-05T13:12:43.257Z,62.85
2016-09-05T13:13:43.526Z,61.98
2016-09-05T13:14:43.164Z,62.01
2016-09-05T13:15:43.398Z,61.79
2016-09-05T13:16:43.210Z,61.82
2016-09-05T13:17:43.095Z,62.2
2016-09-05T13:18:43.060Z,62.01
2016-09-05T13:19:43.030Z,61.91
2016-09-05T13:20:42.995Z,62.2
2016-09-05T13:21:43.066Z,61.52
2016-09-05T13:22:43.298Z,61.55
2016-09-05T13:23:43.331Z,61.36
2016-09-05T13:24:43.319Z,61.55
2016-09-05T13:25:42.897Z,60.3
2016-09-05T13:26:43.221Z,60.2
2016-09-05T13:27:42.903Z,60.58
2016-09-05T13:28:42.852Z,60.27
2016-09-05T13:29:42.776Z,61.24
2016-09-05T13:30:42.849Z,61.33
2016-09-05T13:31:43.147Z,61.43
2016-09-05T13:32:42.743Z,62.2
2016-09-05T13:33:42.705Z,62.2
2016-09-05T13:34:43.082Z,61.72
2016-09-05T13:35:42.665Z,60.94
2016-09-05T13:36:42.626Z,60.65
2016-09-05T13:37:42.613Z,61.24
2016-09-05T13:38:42.761Z,61.33
2016-09-05T13:39:42.656Z,61.04
2016-09-05T13:40:42.538Z,61.24
2016-09-05T13:41:42.518Z,60.94
2016-09-05T13:42:42.527Z,61.62
2016-09-05T13:43:42.486Z,61.14
2016-09-05T13:44:42.425Z,60.58
2016-09-05T13:45:43.079Z,60.68
2016-09-05T13:46:42.440Z,60.88
2016-09-05T13:47:42.441Z,61.46
2016-09-05T13:48:42.366Z,61.17
2016-09-05T13:49:42.364Z,61.17
2016-09-05T13:50:42.806Z,61.1
2016-09-05T13:51:56.998Z,60.23
2016-09-05T13:52:42.301Z,59.28
2016-09-05T13:53:42.710Z,58.41
2016-09-05T13:54:42.366Z,58.61
2016-09-05T13:55:42.178Z,56.79
2016-09-05T13:56:42.187Z,56.95
2016-09-05T13:57:42.117Z,57.11
2016-09-05T13:58:42.102Z,57.28
2016-09-05T13:59:42.093Z,57.08
2016-09-05T14:00:43.289Z,56.65
2016-09-05T14:01:42.449Z,56.26
2016-09-05T14:02:42.040Z,57.04
2016-09-05T14:03:42.005Z,57.21
2016-09-05T14:04:41.974Z,57.47
2016-09-05T14:05:42.136Z,57.86
2016-09-05T14:06:41.969Z,57.67
2016-09-05T14:07:41.894Z,59.19